Time;durP1;ratioP1;P1;durP2;ratioP2;P2;SDS_P1;SDS_P2;PMS_P1;PMS_P2;Temp;Humidity;BMP_temperature;BMP_pressure;BME280_temperature;BME280_humidity;BME280_pressure;Samples;Min_cycle;Max_cycle;Signal;HPM_P1;HPM_P2
2023/05/31 00:02:19;;;;;;;10.80;3.90;;;;;;;-128.00;-1.00;-1.00;97779;294;1005234;-33
2023/05/31 00:04:45;;;;;;;10.00;5.00;;;;;;;-128.00;-1.00;-1.00;97797;294;1004264;-38
2023/05/31 00:07:11;;;;;;;8.50;3.60;;;;;;;-128.00;-1.00;-1.00;97733;283;1005113;-33
2023/05/31 00:09:36;;;;;;;6.60;3.10;;;;;;;-128.00;-1.00;-1.00;97795;294;1004828;-37
2023/05/31 00:12:02;;;;;;;3.70;2.80;;;;;;;-128.00;-1.00;-1.00;97675;294;1005212;-33
2023/05/31 00:14:27;;;;;;;25.70;14.30;;;;;;;-128.00;-1.00;-1.00;97793;294;1005297;-33
2023/05/31 00:16:53;;;;;;;38.60;18.60;;;;;;;-128.00;-1.00;-1.00;97636;284;1005418;-35
2023/05/31 00:19:19;;;;;;;36.10;18.10;;;;;;;-128.00;-1.00;-1.00;97750;294;1004455;-32
2023/05/31 00:21:45;;;;;;;29.70;16.80;;;;;;;-128.00;-1.00;-1.00;97644;294;1004736;-34
2023/05/31 00:24:11;;;;;;;42.90;24.50;;;;;;;-128.00;-1.00;-1.00;97678;294;1005235;-33
2023/05/31 00:26:38;;;;;;;15.50;10.00;;;;;;;-128.00;-1.00;-1.00;97752;294;1005230;-31
2023/05/31 00:29:04;;;;;;;20.30;10.80;;;;;;;-128.00;-1.00;-1.00;97789;294;1005029;-30
2023/05/31 00:31:29;;;;;;;20.60;10.40;;;;;;;-128.00;-1.00;-1.00;97794;294;1005544;-38
2023/05/31 01:12:32;;;;;;;11.10;3.60;;;;;;;-101.09;18.78;20015.27;98337;295;1544266;-33
2023/05/31 01:15:07;;;;;;;6.70;2.20;;;;;;;-128.00;-1.00;-1.00;97495;294;1003224;-29
2023/05/31 01:17:46;;;;;;;7.60;3.20;;;;;;;-128.00;-1.00;-1.00;97935;296;1003129;-34
2023/05/31 01:20:14;;;;;;;7.10;1.90;;;;;;;-128.00;-1.00;-1.00;97818;285;1003672;-35
2023/05/31 01:22:57;;;;;;;4.60;2.40;;;;;;;-128.00;-1.00;-1.00;94175;296;3002354;-32
2023/05/31 01:25:43;;;;;;;19.60;4.40;;;;;;;-128.00;-1.00;-1.00;21154;296;7504671;-29
2023/05/31 01:28:09;;;;;;;3.70;2.30;;;;;;;-128.00;-1.00;-1.00;18491;348;7505283;-30
2023/05/31 01:30:36;;;;;;;3.00;2.20;;;;;;;-128.00;-1.00;-1.00;18483;296;7506858;-35
2023/05/31 01:33:01;;;;;;;1.90;1.50;;;;;;;-128.00;-1.00;-1.00;18479;345;7504992;-29
2023/05/31 01:35:27;;;;;;;4.20;2.60;;;;;;;-128.00;-1.00;-1.00;18478;309;7504770;-30
2023/05/31 01:37:53;;;;;;;5.70;3.10;;;;;;;-128.00;-1.00;-1.00;18873;297;7504688;-33
2023/05/31 01:40:21;;;;;;;4.40;3.20;;;;;;;-128.00;-1.00;-1.00;20314;296;7504255;-31
2023/05/31 01:42:48;;;;;;;5.70;3.60;;;;;;;-128.00;-1.00;-1.00;18872;336;7504419;-30
2023/05/31 01:45:14;;;;;;;8.80;3.70;;;;;;;-128.00;-1.00;-1.00;18877;336;7504142;-31
2023/05/31 01:47:41;;;;;;;11.10;3.90;;;;;;;-128.00;-1.00;-1.00;18896;345;7504333;-31
2023/05/31 01:50:08;;;;;;;6.70;3.80;;;;;;;-128.00;-1.00;-1.00;18858;289;7504651;-29
2023/05/31 01:52:34;;;;;;;5.40;2.50;;;;;;;-128.00;-1.00;-1.00;18473;289;7504399;-30
2023/05/31 01:55:02;;;;;;;10.70;3.20;;;;;;;-128.00;-1.00;-1.00;18498;289;7504414;-35
2023/05/31 01:57:28;;;;;;;10.30;2.90;;;;;;;-128.00;-1.00;-1.00;18489;304;7504934;-36
2023/05/31 01:59:54;;;;;;;4.00;2.40;;;;;;;-128.00;-1.00;-1.00;18487;289;7504347;-31
2023/05/31 02:02:20;;;;;;;11.00;3.50;;;;;;;-128.00;-1.00;-1.00;18465;289;7506392;-34
2023/05/31 02:04:45;;;;;;;4.90;1.50;;;;;;;-128.00;-1.00;-1.00;18485;285;7504221;-31
2023/05/31 02:07:12;;;;;;;7.20;2.00;;;;;;;-128.00;-1.00;-1.00;18898;319;7504452;-35
2023/05/31 02:09:38;;;;;;;6.80;2.00;;;;;;;-128.00;-1.00;-1.00;18478;289;7504578;-34
2023/05/31 02:12:04;;;;;;;7.30;3.90;;;;;;;-128.00;-1.00;-1.00;18877;296;7504420;-30
2023/05/31 02:14:30;;;;;;;3.90;2.10;;;;;;;-128.00;-1.00;-1.00;18506;297;7505798;-30
2023/05/31 02:16:56;;;;;;;7.90;3.50;;;;;;;-128.00;-1.00;-1.00;18482;297;7506235;-31
2023/05/31 02:19:25;;;;;;;3.30;2.50;;;;;;;-128.00;-1.00;-1.00;18478;285;7506238;-30
2023/05/31 02:21:52;;;;;;;7.40;3.50;;;;;;;-128.00;-1.00;-1.00;18490;285;7506080;-31
2023/05/31 02:24:18;;;;;;;8.90;4.00;;;;;;;-128.00;-1.00;-1.00;18461;285;7504333;-30
2023/05/31 02:26:43;;;;;;;3.50;2.30;;;;;;;-128.00;-1.00;-1.00;18496;289;7504911;-34
2023/05/31 02:29:10;;;;;;;7.10;3.10;;;;;;;-128.00;-1.00;-1.00;18910;285;7504682;-30
2023/05/31 02:31:36;;;;;;;2.30;1.90;;;;;;;-128.00;-1.00;-1.00;18443;289;7505926;-29
2023/05/31 02:34:02;;;;;;;5.10;2.00;;;;;;;-128.00;-1.00;-1.00;18481;296;7504497;-31
2023/05/31 02:36:28;;;;;;;4.70;2.00;;;;;;;-128.00;-1.00;-1.00;18462;300;7505529;-31
2023/05/31 02:38:54;;;;;;;8.00;2.10;;;;;;;-128.00;-1.00;-1.00;18468;297;7505862;-31
2023/05/31 02:41:20;;;;;;;4.90;3.00;;;;;;;-128.00;-1.00;-1.00;18474;289;7504257;-31
2023/05/31 02:43:45;;;;;;;7.80;4.30;;;;;;;-128.00;-1.00;-1.00;18481;289;7504570;-34
2023/05/31 02:46:11;;;;;;;8.50;2.50;;;;;;;-128.00;-1.00;-1.00;18479;285;7504513;-31
2023/05/31 02:48:37;;;;;;;5.90;2.60;;;;;;;-128.00;-1.00;-1.00;18893;289;7505052;-34
2023/05/31 02:51:04;;;;;;;5.80;2.30;;;;;;;-128.00;-1.00;-1.00;18858;348;7504668;-30
2023/05/31 02:53:30;;;;;;;4.00;1.90;;;;;;;-128.00;-1.00;-1.00;18464;289;7505343;-34
2023/05/31 02:55:56;;;;;;;2.40;2.00;;;;;;;-128.00;-1.00;-1.00;18460;297;7506206;-34
2023/05/31 02:58:22;;;;;;;8.00;3.20;;;;;;;-128.00;-1.00;-1.00;18883;297;7506259;-31
2023/05/31 03:00:48;;;;;;;5.50;2.40;;;;;;;-128.00;-1.00;-1.00;18861;297;7505687;-34
2023/05/31 03:03:18;;;;;;;6.90;2.50;;;;;;;-128.00;-1.00;-1.00;18497;285;7505044;-34
2023/05/31 03:05:45;;;;;;;2.30;1.40;;;;;;;-128.00;-1.00;-1.00;18474;297;7504682;-34
2023/05/31 03:08:10;;;;;;;1.50;1.10;;;;;;;-128.00;-1.00;-1.00;18447;308;7504479;-34
2023/05/31 03:10:37;;;;;;;8.20;2.20;;;;;;;-128.00;-1.00;-1.00;18899;304;7505395;-34
2023/05/31 03:13:03;;;;;;;9.60;3.90;;;;;;;-128.00;-1.00;-1.00;18891;285;7504917;-31
2023/05/31 03:15:29;;;;;;;4.80;3.10;;;;;;;-128.00;-1.00;-1.00;18871;296;7505142;-31
2023/05/31 03:17:55;;;;;;;6.70;2.30;;;;;;;-128.00;-1.00;-1.00;18889;296;7504340;-34
2023/05/31 03:20:22;;;;;;;5.90;2.70;;;;;;;-128.00;-1.00;-1.00;18887;289;7504667;-30
2023/05/31 03:22:48;;;;;;;5.50;3.50;;;;;;;-128.00;-1.00;-1.00;18881;348;7504390;-34
2023/05/31 03:25:15;;;;;;;7.50;3.90;;;;;;;-128.00;-1.00;-1.00;18895;320;7504751;-35
2023/05/31 03:27:41;;;;;;;6.20;2.60;;;;;;;-128.00;-1.00;-1.00;18479;296;7504794;-35
2023/05/31 03:30:07;;;;;;;6.40;2.60;;;;;;;-128.00;-1.00;-1.00;18485;312;7505065;-34
2023/05/31 03:32:33;;;;;;;9.20;2.40;;;;;;;-128.00;-1.00;-1.00;18487;297;7505962;-34
2023/05/31 03:34:59;;;;;;;4.50;2.00;;;;;;;-128.00;-1.00;-1.00;18472;297;7504803;-31
2023/05/31 03:37:24;;;;;;;6.90;3.10;;;;;;;-128.00;-1.00;-1.00;18476;297;7504903;-31
2023/05/31 03:39:51;;;;;;;5.00;2.40;;;;;;;-128.00;-1.00;-1.00;18873;285;7504507;-35
2023/05/31 03:42:17;;;;;;;5.70;3.10;;;;;;;-128.00;-1.00;-1.00;18872;296;7504349;-33
2023/05/31 03:44:43;;;;;;;6.90;3.50;;;;;;;-128.00;-1.00;-1.00;18861;348;7504390;-30
2023/05/31 03:47:10;;;;;;;7.30;3.70;;;;;;;-128.00;-1.00;-1.00;18869;289;7504687;-31
2023/05/31 03:49:36;;;;;;;5.10;2.20;;;;;;;-128.00;-1.00;-1.00;18498;297;7505039;-34
2023/05/31 03:52:02;;;;;;;5.90;3.40;;;;;;;-128.00;-1.00;-1.00;18847;289;7505034;-31
2023/05/31 03:54:29;;;;;;;6.60;2.80;;;;;;;-128.00;-1.00;-1.00;18861;289;7504795;-37
2023/05/31 03:56:55;;;;;;;8.20;2.50;;;;;;;-128.00;-1.00;-1.00;18470;297;7504771;-31
2023/05/31 03:59:21;;;;;;;13.60;4.20;;;;;;;-128.00;-1.00;-1.00;18869;305;7504754;-36
2023/05/31 04:01:47;;;;;;;5.90;3.50;;;;;;;-128.00;-1.00;-1.00;18865;297;7504410;-32
2023/05/31 04:04:13;;;;;;;6.80;2.30;;;;;;;-128.00;-1.00;-1.00;18877;285;7505322;-32
2023/05/31 04:06:39;;;;;;;8.00;2.70;;;;;;;-128.00;-1.00;-1.00;18874;289;7504694;-36
2023/05/31 04:09:06;;;;;;;6.90;3.00;;;;;;;-128.00;-1.00;-1.00;18866;289;7504261;-33
2023/05/31 04:11:32;;;;;;;9.10;4.50;;;;;;;-128.00;-1.00;-1.00;18896;297;7504528;-33
2023/05/31 04:13:58;;;;;;;5.80;2.90;;;;;;;-128.00;-1.00;-1.00;18467;289;7505227;-34
2023/05/31 04:16:24;;;;;;;4.50;3.20;;;;;;;-128.00;-1.00;-1.00;18444;297;7507094;-33
2023/05/31 04:18:49;;;;;;;3.20;2.50;;;;;;;-128.00;-1.00;-1.00;18429;322;7504278;-32
2023/05/31 04:21:15;;;;;;;4.00;2.30;;;;;;;-128.00;-1.00;-1.00;18475;297;7504363;-32
2023/05/31 04:23:41;;;;;;;5.80;3.00;;;;;;;-128.00;-1.00;-1.00;18462;285;7504394;-31
2023/05/31 04:26:06;;;;;;;4.10;2.60;;;;;;;-128.00;-1.00;-1.00;18472;348;7506358;-35
2023/05/31 04:28:33;;;;;;;5.00;2.70;;;;;;;-128.00;-1.00;-1.00;18863;297;7505318;-33
2023/05/31 04:31:00;;;;;;;3.40;2.30;;;;;;;-128.00;-1.00;-1.00;18866;297;7504384;-34
2023/05/31 04:33:29;;;;;;;3.60;1.80;;;;;;;-128.00;-1.00;-1.00;18428;297;7504810;-34
2023/05/31 04:35:57;;;;;;;6.00;3.00;;;;;;;-128.00;-1.00;-1.00;18476;285;7505760;-35
2023/05/31 04:38:27;;;;;;;8.40;2.40;;;;;;;-128.00;-1.00;-1.00;18465;297;7505804;-31
2023/05/31 04:40:55;;;;;;;11.50;3.40;;;;;;;-128.00;-1.00;-1.00;18463;297;7506664;-35
2023/05/31 04:43:21;;;;;;;3.60;2.50;;;;;;;-128.00;-1.00;-1.00;18451;321;7504539;-35
2023/05/31 04:45:47;;;;;;;5.00;2.30;;;;;;;-128.00;-1.00;-1.00;18482;289;7505072;-36
2023/05/31 04:48:15;;;;;;;15.90;2.90;;;;;;;-128.00;-1.00;-1.00;18506;297;7504898;-32
2023/05/31 04:50:40;;;;;;;10.50;3.90;;;;;;;-128.00;-1.00;-1.00;18451;297;7507075;-32
2023/05/31 04:53:06;;;;;;;6.80;3.20;;;;;;;-128.00;-1.00;-1.00;18485;297;7505989;-36
2023/05/31 04:55:32;;;;;;;8.40;2.90;;;;;;;-128.00;-1.00;-1.00;18458;297;7505153;-32
2023/05/31 04:57:58;;;;;;;6.40;3.20;;;;;;;-128.00;-1.00;-1.00;18876;289;7504408;-32
2023/05/31 05:00:24;;;;;;;5.70;2.80;;;;;;;-128.00;-1.00;-1.00;18868;296;7504186;-32
2023/05/31 05:02:50;;;;;;;8.00;2.60;;;;;;;-128.00;-1.00;-1.00;18858;301;7504592;-32
2023/05/31 05:05:17;;;;;;;6.90;3.00;;;;;;;-128.00;-1.00;-1.00;18851;297;7504424;-36
2023/05/31 05:07:43;;;;;;;6.10;2.80;;;;;;;-128.00;-1.00;-1.00;18881;297;7504921;-36
2023/05/31 05:10:09;;;;;;;12.50;3.10;;;;;;;-128.00;-1.00;-1.00;18857;297;7505455;-32
2023/05/31 05:12:36;;;;;;;5.80;3.30;;;;;;;-128.00;-1.00;-1.00;18861;297;7504831;-35
2023/05/31 05:15:02;;;;;;;6.70;3.20;;;;;;;-128.00;-1.00;-1.00;18865;289;7504573;-35
2023/05/31 05:17:28;;;;;;;6.70;3.60;;;;;;;-128.00;-1.00;-1.00;18490;285;7504846;-35
2023/05/31 05:19:54;;;;;;;9.60;3.90;;;;;;;-128.00;-1.00;-1.00;18863;297;7505287;-31
2023/05/31 05:22:21;;;;;;;3.70;2.60;;;;;;;-128.00;-1.00;-1.00;18876;348;7504672;-36
2023/05/31 05:24:47;;;;;;;6.20;4.00;;;;;;;-128.00;-1.00;-1.00;18868;348;7504580;-35
2023/05/31 05:27:13;;;;;;;8.40;2.90;;;;;;;-128.00;-1.00;-1.00;18883;297;7504391;-35
2023/05/31 05:29:39;;;;;;;3.80;2.20;;;;;;;-128.00;-1.00;-1.00;18860;301;7504391;-31
2023/05/31 05:32:06;;;;;;;3.50;2.30;;;;;;;-128.00;-1.00;-1.00;18843;297;7504197;-36
2023/05/31 05:34:35;;;;;;;9.70;2.40;;;;;;;-128.00;-1.00;-1.00;18460;297;7504841;-36
2023/05/31 05:37:01;;;;;;;7.10;2.70;;;;;;;-128.00;-1.00;-1.00;18465;285;7504898;-32
2023/05/31 05:39:27;;;;;;;6.20;3.00;;;;;;;-128.00;-1.00;-1.00;18470;297;7505241;-36
2023/05/31 05:41:53;;;;;;;7.10;2.80;;;;;;;-128.00;-1.00;-1.00;18452;304;7506059;-32
2023/05/31 05:44:18;;;;;;;6.00;3.20;;;;;;;-128.00;-1.00;-1.00;18457;297;7505955;-32
2023/05/31 05:46:44;;;;;;;8.80;3.70;;;;;;;-128.00;-1.00;-1.00;18496;285;7506029;-33
2023/05/31 05:49:11;;;;;;;6.20;2.50;;;;;;;-128.00;-1.00;-1.00;18883;297;7505175;-33
2023/05/31 05:51:37;;;;;;;12.30;3.20;;;;;;;-128.00;-1.00;-1.00;18464;297;7504634;-32
2023/05/31 05:54:03;;;;;;;6.00;2.20;;;;;;;-128.00;-1.00;-1.00;18469;320;7506235;-36
2023/05/31 05:56:29;;;;;;;3.50;3.10;;;;;;;-128.00;-1.00;-1.00;18465;297;7504483;-36
2023/05/31 05:58:55;;;;;;;3.10;1.50;;;;;;;-128.00;-1.00;-1.00;18475;296;7504618;-36
2023/05/31 06:01:22;;;;;;;14.00;2.90;;;;;;;-128.00;-1.00;-1.00;18863;289;7504576;-38
2023/05/31 06:03:49;;;;;;;9.10;1.90;;;;;;;-128.00;-1.00;-1.00;54832;285;7504403;-31
2023/05/31 06:06:16;;;;;;;2.70;1.40;;;;;;;-128.00;-1.00;-1.00;97849;296;1003115;-31
2023/05/31 06:08:43;;;;;;;6.30;1.70;;;;;;;-128.00;-1.00;-1.00;97827;285;1003025;-36
2023/05/31 06:11:08;;;;;;;2.30;1.40;;;;;;;-128.00;-1.00;-1.00;97795;297;1002511;-31
2023/05/31 06:13:34;;;;;;;1.00;0.70;;;;;;;-128.00;-1.00;-1.00;97831;297;1003871;-35
2023/05/31 06:15:59;;;;;;;4.00;1.10;;;;;;;-128.00;-1.00;-1.00;97774;297;1002884;-36
2023/05/31 06:18:25;;;;;;;4.60;1.60;;;;;;;-128.00;-1.00;-1.00;97966;297;1005031;-31
2023/05/31 06:20:51;;;;;;;2.60;1.10;;;;;;;-128.00;-1.00;-1.00;97832;285;1004104;-33
2023/05/31 06:23:16;;;;;;;2.80;1.10;;;;;;;-128.00;-1.00;-1.00;97892;297;1003391;-33
2023/05/31 06:25:42;;;;;;;4.30;1.30;;;;;;;-128.00;-1.00;-1.00;97790;285;1003961;-35
2023/05/31 06:28:08;;;;;;;7.00;1.60;;;;;;;-128.00;-1.00;-1.00;98019;296;1004630;-31
2023/05/31 06:30:34;;;;;;;4.40;1.30;;;;;;;-128.00;-1.00;-1.00;97844;296;1003299;-31
2023/05/31 06:32:59;;;;;;;4.00;1.20;;;;;;;-128.00;-1.00;-1.00;97822;296;1004478;-32
2023/05/31 06:35:25;;;;;;;1.60;0.80;;;;;;;-128.00;-1.00;-1.00;97757;285;1004185;-32
2023/05/31 06:37:51;;;;;;;3.90;1.40;;;;;;;-128.00;-1.00;-1.00;97820;285;1004703;-35
2023/05/31 06:40:18;;;;;;;2.50;0.90;;;;;;;-128.00;-1.00;-1.00;97930;296;1003367;-31
2023/05/31 06:42:43;;;;;;;3.80;1.10;;;;;;;-128.00;-1.00;-1.00;97824;285;1004132;-31
2023/05/31 06:45:09;;;;;;;3.10;0.90;;;;;;;-128.00;-1.00;-1.00;97777;297;1004749;-30
2023/05/31 06:47:35;;;;;;;4.50;1.20;;;;;;;-128.00;-1.00;-1.00;97948;285;1004683;-30
2023/05/31 06:50:02;;;;;;;1.60;0.90;;;;;;;-128.00;-1.00;-1.00;97831;285;1003466;-31
2023/05/31 06:52:28;;;;;;;1.30;0.80;;;;;;;-128.00;-1.00;-1.00;97878;285;1003031;-36
2023/05/31 06:54:53;;;;;;;4.60;1.00;;;;;;;-128.00;-1.00;-1.00;97968;297;1004517;-32
2023/05/31 06:57:19;;;;;;;1.70;0.80;;;;;;;-128.00;-1.00;-1.00;97890;297;1003156;-32
2023/05/31 06:59:45;;;;;;;1.80;0.90;;;;;;;-128.00;-1.00;-1.00;97819;285;1003166;-35
2023/05/31 07:02:10;;;;;;;1.90;1.30;;;;;;;-128.00;-1.00;-1.00;97791;296;1003142;-35
2023/05/31 07:04:36;;;;;;;2.20;0.90;;;;;;;-128.00;-1.00;-1.00;97860;285;1003664;-35
2023/05/31 07:07:03;;;;;;;8.80;1.10;;;;;;;-128.00;-1.00;-1.00;97757;296;1003021;-31
2023/05/31 07:09:29;;;;;;;10.30;1.10;;;;;;;-128.00;-1.00;-1.00;97940;285;1003348;-35
2023/05/31 07:11:54;;;;;;;1.70;1.00;;;;;;;-128.00;-1.00;-1.00;97823;285;1005320;-32
2023/05/31 07:14:22;;;;;;;2.90;1.20;;;;;;;-128.00;-1.00;-1.00;97879;285;1004025;-32
2023/05/31 07:16:48;;;;;;;2.90;0.90;;;;;;;-128.00;-1.00;-1.00;97924;296;1004404;-35
2023/05/31 07:19:13;;;;;;;4.20;0.90;;;;;;;-128.00;-1.00;-1.00;97819;297;1002745;-30
2023/05/31 07:21:39;;;;;;;2.40;0.80;;;;;;;-128.00;-1.00;-1.00;97759;297;1005067;-30
2023/05/31 07:24:05;;;;;;;2.30;1.00;;;;;;;-128.00;-1.00;-1.00;97887;289;1004722;-33
2023/05/31 07:26:31;;;;;;;2.30;0.80;;;;;;;-128.00;-1.00;-1.00;97971;289;1004642;-31
2023/05/31 07:28:57;;;;;;;3.40;0.90;;;;;;;-128.00;-1.00;-1.00;97823;285;1004827;-30
2023/05/31 07:31:23;;;;;;;2.30;1.40;;;;;;;-128.00;-1.00;-1.00;97915;297;1004620;-35
2023/05/31 07:33:48;;;;;;;6.10;1.80;;;;;;;-128.00;-1.00;-1.00;97900;285;1003188;-36
2023/05/31 07:36:15;;;;;;;1.40;0.80;;;;;;;-128.00;-1.00;-1.00;97995;285;1004340;-35
2023/05/31 07:38:41;;;;;;;1.90;0.80;;;;;;;-128.00;-1.00;-1.00;97981;296;1003367;-31
2023/05/31 07:41:07;;;;;;;3.90;0.90;;;;;;;-128.00;-1.00;-1.00;97936;296;1002468;-31
2023/05/31 07:43:34;;;;;;;3.70;0.60;;;;;;;-128.00;-1.00;-1.00;97787;285;1004296;-35
2023/05/31 07:46:00;;;;;;;4.40;1.00;;;;;;;-128.00;-1.00;-1.00;97786;285;1004533;-34
2023/05/31 07:48:25;;;;;;;1.60;0.70;;;;;;;-128.00;-1.00;-1.00;97868;297;1005161;-32
2023/05/31 07:50:51;;;;;;;7.40;0.60;;;;;;;-128.00;-1.00;-1.00;97934;285;1002934;-31
2023/05/31 07:53:17;;;;;;;1.70;0.90;;;;;;;-128.00;-1.00;-1.00;97943;296;1003788;-36
2023/05/31 07:55:43;;;;;;;0.80;0.50;;;;;;;-128.00;-1.00;-1.00;97887;285;1002955;-32
2023/05/31 07:58:11;;;;;;;2.00;0.60;;;;;;;-128.00;-1.00;-1.00;97955;285;1004763;-32
2023/05/31 08:00:38;;;;;;;3.00;0.80;;;;;;;-128.00;-1.00;-1.00;97842;285;1003433;-34
2023/05/31 08:03:05;;;;;;;12.40;1.30;;;;;;;-128.00;-1.00;-1.00;97916;296;1003811;-35
2023/05/31 08:05:31;;;;;;;1.30;0.80;;;;;;;-128.00;-1.00;-1.00;97873;296;1003015;-31
2023/05/31 08:07:57;;;;;;;1.50;0.60;;;;;;;-128.00;-1.00;-1.00;97743;285;1004100;-31
2023/05/31 08:10:22;;;;;;;4.00;1.20;;;;;;;-128.00;-1.00;-1.00;97778;296;1004688;-31
2023/05/31 08:12:48;;;;;;;8.90;1.40;;;;;;;-128.00;-1.00;-1.00;97767;285;1004846;-31
2023/05/31 08:15:14;;;;;;;7.10;1.00;;;;;;;-128.00;-1.00;-1.00;97663;298;1003479;-40
2023/05/31 08:17:39;;;;;;;1.60;0.40;;;;;;;-128.00;-1.00;-1.00;97854;285;1002819;-33
2023/05/31 08:20:06;;;;;;;2.00;0.50;;;;;;;-128.00;-1.00;-1.00;97873;296;1002994;-30
2023/05/31 08:22:33;;;;;;;3.70;0.80;;;;;;;-128.00;-1.00;-1.00;97818;296;1003069;-35
2023/05/31 08:24:59;;;;;;;2.70;0.70;;;;;;;-128.00;-1.00;-1.00;97910;297;1005221;-35
2023/05/31 08:27:24;;;;;;;1.80;0.60;;;;;;;-128.00;-1.00;-1.00;97869;285;1003130;-33
2023/05/31 08:29:50;;;;;;;2.10;0.40;;;;;;;-128.00;-1.00;-1.00;97945;297;1004130;-35
2023/05/31 08:32:16;;;;;;;0.90;0.60;;;;;;;-128.00;-1.00;-1.00;97851;285;1004714;-31
2023/05/31 08:34:43;;;;;;;3.60;1.00;;;;;;;-128.00;-1.00;-1.00;97936;285;1002998;-31
2023/05/31 08:37:09;;;;;;;3.10;0.50;;;;;;;-128.00;-1.00;-1.00;97759;297;1003066;-36
2023/05/31 08:39:35;;;;;;;2.90;0.60;;;;;;;-128.00;-1.00;-1.00;97881;297;1003425;-38
2023/05/31 08:42:04;;;;;;;4.10;0.70;;;;;;;-128.00;-1.00;-1.00;97902;285;1003088;-30
2023/05/31 08:44:30;;;;;;;2.50;1.00;;;;;;;-128.00;-1.00;-1.00;97830;297;1002658;-31
2023/05/31 08:46:58;;;;;;;5.50;1.20;;;;;;;-128.00;-1.00;-1.00;97869;285;1003012;-36
2023/05/31 08:49:23;;;;;;;1.50;0.50;;;;;;;-128.00;-1.00;-1.00;97855;285;1003015;-32
2023/05/31 08:51:49;;;;;;;1.20;0.40;;;;;;;-128.00;-1.00;-1.00;97826;297;1002970;-35
2023/05/31 08:54:14;;;;;;;3.70;0.60;;;;;;;-128.00;-1.00;-1.00;97733;285;1002848;-31
2023/05/31 08:56:40;;;;;;;1.50;0.50;;;;;;;-128.00;-1.00;-1.00;97852;285;1004761;-35
2023/05/31 08:59:08;;;;;;;3.00;0.40;;;;;;;-128.00;-1.00;-1.00;97852;297;1004506;-34
2023/05/31 09:01:35;;;;;;;1.10;0.30;;;;;;;-128.00;-1.00;-1.00;97868;297;1003774;-32
2023/05/31 09:04:00;;;;;;;4.40;0.40;;;;;;;-128.00;-1.00;-1.00;97907;285;1003057;-30
2023/05/31 09:06:26;;;;;;;4.20;0.80;;;;;;;-128.00;-1.00;-1.00;97935;285;1003253;-34
2023/05/31 09:08:52;;;;;;;0.80;0.40;;;;;;;-128.00;-1.00;-1.00;97842;297;1005006;-34
2023/05/31 09:11:17;;;;;;;0.80;0.30;;;;;;;-128.00;-1.00;-1.00;97867;296;1002942;-31
2023/05/31 09:13:43;;;;;;;0.90;0.50;;;;;;;-128.00;-1.00;-1.00;97834;297;1003737;-35
2023/05/31 09:16:08;;;;;;;3.00;0.50;;;;;;;-128.00;-1.00;-1.00;97371;296;1003158;-31
2023/05/31 09:18:38;;;;;;;1.30;0.40;;;;;;;-128.00;-1.00;-1.00;97859;285;1005493;-34
2023/05/31 09:21:08;;;;;;;1.50;0.50;;;;;;;-128.00;-1.00;-1.00;97892;297;1003786;-35
2023/05/31 09:23:34;;;;;;;2.70;0.70;;;;;;;-128.00;-1.00;-1.00;97947;285;1003614;-35
2023/05/31 09:26:00;;;;;;;1.60;0.60;;;;;;;-128.00;-1.00;-1.00;97879;285;1004211;-35
2023/05/31 09:28:26;;;;;;;1.00;0.50;;;;;;;-128.00;-1.00;-1.00;97823;296;1004961;-34
2023/05/31 09:31:04;;;;;;;2.70;0.70;;;;;;;-128.00;-1.00;-1.00;97835;296;1004145;-30
2023/05/31 09:33:40;;;;;;;1.20;0.60;;;;;;;-128.00;-1.00;-1.00;97784;296;1003054;-34
2023/05/31 09:36:06;;;;;;;5.30;0.50;;;;;;;-128.00;-1.00;-1.00;97943;285;1003521;-35
2023/05/31 09:38:33;;;;;;;2.00;0.50;;;;;;;-128.00;-1.00;-1.00;97782;297;1003127;-32
2023/05/31 09:41:14;;;;;;;5.20;1.20;;;;;;;-128.00;-1.00;-1.00;97872;285;1002746;-38
2023/05/31 09:43:41;;;;;;;12.20;1.00;;;;;;;-128.00;-1.00;-1.00;97907;297;1002592;-35
2023/05/31 09:46:14;;;;;;;1.90;0.70;;;;;;;-128.00;-1.00;-1.00;97798;289;1002294;-31
2023/05/31 09:48:40;;;;;;;2.60;0.70;;;;;;;-128.00;-1.00;-1.00;97760;285;1003093;-30
2023/05/31 09:51:08;;;;;;;1.60;0.50;;;;;;;-128.00;-1.00;-1.00;97798;296;1002809;-34
2023/05/31 09:53:41;;;;;;;1.70;0.70;;;;;;;-128.00;-1.00;-1.00;97828;285;1003602;-34
2023/05/31 09:56:09;;;;;;;2.90;0.50;;;;;;;-128.00;-1.00;-1.00;97817;297;1003631;-34
2023/05/31 09:58:35;;;;;;;1.50;0.50;;;;;;;-128.00;-1.00;-1.00;97886;297;1004651;-35
2023/05/31 10:01:00;;;;;;;2.50;0.60;;;;;;;-128.00;-1.00;-1.00;97911;297;1004045;-39
2023/05/31 10:03:29;;;;;;;1.90;0.60;;;;;;;-128.00;-1.00;-1.00;97937;296;1004553;-34
2023/05/31 10:05:54;;;;;;;2.60;0.40;;;;;;;-128.00;-1.00;-1.00;97872;285;1002703;-36
2023/05/31 10:08:22;;;;;;;2.50;0.60;;;;;;;-128.00;-1.00;-1.00;98011;297;1002968;-36
2023/05/31 10:10:48;;;;;;;3.10;0.90;;;;;;;-128.00;-1.00;-1.00;97833;285;1003761;-34
2023/05/31 10:13:13;;;;;;;1.70;0.40;;;;;;;-128.00;-1.00;-1.00;97815;297;1003634;-31
2023/05/31 10:15:39;;;;;;;1.00;0.50;;;;;;;-128.00;-1.00;-1.00;97927;297;1003629;-31
2023/05/31 10:18:10;;;;;;;3.30;0.60;;;;;;;-128.00;-1.00;-1.00;97848;285;1003745;-31
2023/05/31 10:20:39;;;;;;;2.60;0.60;;;;;;;-128.00;-1.00;-1.00;97957;285;1004015;-40
2023/05/31 10:23:14;;;;;;;5.80;0.50;;;;;;;-128.00;-1.00;-1.00;97862;297;1004168;-34
2023/05/31 10:25:56;;;;;;;3.20;0.50;;;;;;;-128.00;-1.00;-1.00;97962;297;1002532;-31
2023/05/31 10:28:24;;;;;;;;;;;;;;;-128.00;-1.00;-1.00;97867;289;1004552;-31
2023/05/31 10:30:50;;;;;;;0.80;0.50;;;;;;;-128.00;-1.00;-1.00;97911;297;1003176;-36
2023/05/31 10:33:16;;;;;;;2.70;0.60;;;;;;;-128.00;-1.00;-1.00;97765;285;1003248;-31
2023/05/31 10:35:41;;;;;;;0.50;0.30;;;;;;;-128.00;-1.00;-1.00;97841;297;1003109;-32
2023/05/31 10:38:07;;;;;;;1.50;0.90;;;;;;;-128.00;-1.00;-1.00;97755;297;1005202;-31
2023/05/31 10:40:53;;;;;;;1.50;0.80;;;;;;;-128.00;-1.00;-1.00;97736;297;1002775;-31
2023/05/31 10:43:44;;;;;;;0.90;0.40;;;;;;;-128.00;-1.00;-1.00;97764;285;1003955;-30
2023/05/31 10:46:13;;;;;;;0.80;0.50;;;;;;;-128.00;-1.00;-1.00;97768;285;1003190;-34
2023/05/31 10:48:58;;;;;;;1.30;0.50;;;;;;;-128.00;-1.00;-1.00;97766;285;1004176;-33
2023/05/31 10:51:39;;;;;;;0.90;0.50;;;;;;;-128.00;-1.00;-1.00;97869;285;1004071;-33
2023/05/31 10:54:05;;;;;;;1.50;0.40;;;;;;;-128.00;-1.00;-1.00;97782;285;1003682;-35
2023/05/31 10:56:31;;;;;;;2.30;0.90;;;;;;;-128.00;-1.00;-1.00;97924;285;1003672;-35
2023/05/31 10:58:57;;;;;;;6.40;0.80;;;;;;;-128.00;-1.00;-1.00;97845;297;1003307;-31
2023/05/31 11:01:24;;;;;;;1.20;0.60;;;;;;;-128.00;-1.00;-1.00;97808;285;1003375;-32
2023/05/31 11:03:51;;;;;;;1.10;0.60;;;;;;;-128.00;-1.00;-1.00;97814;285;1003516;-36
2023/05/31 11:06:25;;;;;;;1.80;0.60;;;;;;;-128.00;-1.00;-1.00;97858;297;1004045;-35
2023/05/31 11:08:59;;;;;;;3.80;1.30;;;;;;;-128.00;-1.00;-1.00;97889;297;1003933;-35
2023/05/31 11:11:26;;;;;;;0.60;0.40;;;;;;;-128.00;-1.00;-1.00;97809;285;1003120;-35
2023/05/31 11:14:06;;;;;;;0.90;0.40;;;;;;;-128.00;-1.00;-1.00;97792;285;1003017;-31
2023/05/31 11:16:33;;;;;;;1.30;0.40;;;;;;;-128.00;-1.00;-1.00;97825;297;1004572;-31
2023/05/31 11:19:03;;;;;;;1.10;0.40;;;;;;;-128.00;-1.00;-1.00;97881;296;1003006;-36
2023/05/31 11:21:52;;;;;;;2.10;0.40;;;;;;;-128.00;-1.00;-1.00;97965;297;1004227;-32
2023/05/31 11:24:33;;;;;;;3.60;0.50;;;;;;;-128.00;-1.00;-1.00;97966;285;1003327;-35
2023/05/31 11:27:03;;;;;;;2.90;0.70;;;;;;;-128.00;-1.00;-1.00;97856;285;1002826;-32
2023/05/31 11:30:00;;;;;;;0.80;0.40;;;;;;;-128.00;-1.00;-1.00;97885;285;1002812;-36
2023/05/31 11:32:54;;;;;;;1.30;0.50;;;;;;;-128.00;-1.00;-1.00;97822;285;1003470;-37
2023/05/31 11:35:20;;;;;;;4.70;0.60;;;;;;;-128.00;-1.00;-1.00;97911;285;1003491;-31
2023/05/31 11:37:45;;;;;;;2.60;0.70;;;;;;;-128.00;-1.00;-1.00;97900;297;1003090;-32
2023/05/31 11:40:12;;;;;;;1.20;0.70;;;;;;;-128.00;-1.00;-1.00;97790;285;1004905;-32
2023/05/31 11:42:39;;;;;;;1.90;0.70;;;;;;;-128.00;-1.00;-1.00;97916;296;1003323;-32
2023/05/31 11:45:10;;;;;;;2.00;0.50;;;;;;;-128.00;-1.00;-1.00;97774;296;1003298;-36
2023/05/31 11:47:57;;;;;;;2.20;0.60;;;;;;;-128.00;-1.00;-1.00;97848;285;1003363;-37
2023/05/31 11:50:23;;;;;;;3.60;0.90;;;;;;;-128.00;-1.00;-1.00;97984;296;1003054;-35
2023/05/31 11:52:49;;;;;;;1.00;0.50;;;;;;;-128.00;-1.00;-1.00;97835;296;1004235;-31
2023/05/31 11:55:15;;;;;;;1.30;0.50;;;;;;;-128.00;-1.00;-1.00;97930;285;1003380;-30
2023/05/31 11:57:42;;;;;;;2.50;0.90;;;;;;;-128.00;-1.00;-1.00;97868;285;1004178;-35
2023/05/31 12:00:11;;;;;;;3.00;0.90;;;;;;;-128.00;-1.00;-1.00;97844;285;1002849;-35
2023/05/31 12:02:39;;;;;;;1.60;0.60;;;;;;;-128.00;-1.00;-1.00;97860;297;1003530;-35
2023/05/31 12:05:05;;;;;;;0.90;0.70;;;;;;;-128.00;-1.00;-1.00;97883;285;1003777;-37
2023/05/31 12:07:31;;;;;;;1.00;0.70;;;;;;;-128.00;-1.00;-1.00;97913;285;1003468;-37
2023/05/31 12:09:57;;;;;;;1.70;0.60;;;;;;;-128.00;-1.00;-1.00;97959;285;1003436;-34
2023/05/31 12:12:23;;;;;;;9.80;0.50;;;;;;;-128.00;-1.00;-1.00;97741;296;1004559;-35